Time;durP1;ratioP1;P1;durP2;ratioP2;P2;SDS_P1;SDS_P2;PMS_P1;PMS_P2;Temp;Humidity;BMP_temperature;BMP_pressure;BME280_temperature;BME280_humidity;BME280_pressure;Samples;Min_cycle;Max_cycle;Signal;HPM_P1;HPM_P2
2021/06/24 00:00:05;;;;;;;2.38;1.20;;;24.00;55.10;;;;;;5082666;28;20029;-72
2021/06/24 00:02:31;;;;;;;5.63;1.27;;;24.00;55.20;;;;;;5094015;28;20028;-72
2021/06/24 00:04:56;;;;;;;2.65;0.85;;;23.90;55.30;;;;;;5094615;28;20031;-72
2021/06/24 00:07:22;;;;;;;3.35;1.55;;;23.90;55.30;;;;;;5090494;28;21907;-72
2021/06/24 00:09:48;;;;;;;2.78;0.90;;;23.80;55.40;;;;;;5084776;28;20036;-72
2021/06/24 00:12:13;;;;;;;1.63;1.10;;;23.80;55.50;;;;;;5086082;28;20082;-71
2021/06/24 00:14:40;;;;;;;4.88;1.10;;;23.80;55.70;;;;;;5085510;28;20509;-72
2021/06/24 00:17:05;;;;;;;1.52;1.13;;;23.80;55.90;;;;;;5094519;28;20099;-72
2021/06/24 00:19:31;;;;;;;2.83;1.38;;;23.70;55.80;;;;;;5094731;28;20110;-71
2021/06/24 00:21:57;;;;;;;1.85;1.02;;;23.70;56.10;;;;;;5093077;28;20020;-72
2021/06/24 00:24:22;;;;;;;5.90;1.20;;;23.70;56.20;;;;;;5092162;28;20035;-73
2021/06/24 00:26:48;;;;;;;4.78;1.23;;;23.70;56.20;;;;;;5082699;28;20490;-71
2021/06/24 00:29:14;;;;;;;1.40;0.80;;;23.70;56.40;;;;;;5074192;28;20025;-72
2021/06/24 00:31:40;;;;;;;1.45;1.10;;;23.60;56.50;;;;;;5072969;28;20029;-72
2021/06/24 00:34:05;;;;;;;2.05;1.23;;;23.70;56.50;;;;;;5082778;28;20040;-72
2021/06/24 00:36:31;;;;;;;2.92;1.00;;;23.70;56.50;;;;;;5075713;28;20024;-72
2021/06/24 00:38:57;;;;;;;3.33;1.00;;;23.70;56.40;;;;;;5080558;28;20066;-73
2021/06/24 00:41:23;;;;;;;1.50;0.95;;;23.70;56.30;;;;;;5094334;28;20433;-72
2021/06/24 00:43:49;;;;;;;2.22;1.00;;;23.70;56.30;;;;;;5094133;28;21907;-72
2021/06/24 00:46:15;;;;;;;1.13;0.77;;;23.70;56.30;;;;;;5080826;28;20434;-72
2021/06/24 00:48:41;;;;;;;1.05;0.75;;;23.70;56.20;;;;;;5072616;28;20021;-72
2021/06/24 00:51:06;;;;;;;12.07;1.08;;;23.70;56.20;;;;;;5073885;28;20127;-71
2021/06/24 00:53:32;;;;;;;2.47;1.15;;;23.70;56.20;;;;;;5073894;28;20091;-72
2021/06/24 00:55:59;;;;;;;4.45;0.80;;;23.70;56.10;;;;;;5073778;28;20028;-72
2021/06/24 00:58:27;;;;;;;2.50;0.98;;;23.70;56.10;;;;;;5084439;28;20024;-72
2021/06/24 01:00:58;;;;;;;4.03;1.05;;;23.70;56.10;;;;;;5089452;28;20043;-72
2021/06/24 01:03:24;;;;;;;2.88;1.15;;;23.70;56.10;;;;;;5073945;28;20032;-72
2021/06/24 01:05:50;;;;;;;5.65;1.15;;;23.70;56.20;;;;;;5073721;28;20599;-72
2021/06/24 01:08:17;;;;;;;3.80;0.90;;;23.70;56.20;;;;;;5074654;28;20032;-72
2021/06/24 01:10:47;;;;;;;11.82;1.42;;;23.60;56.90;;;;;;5093715;28;20028;-71
2021/06/24 01:13:13;;;;;;;4.20;1.00;;;23.60;56.40;;;;;;5093559;28;20028;-72
2021/06/24 01:15:40;;;;;;;4.40;0.90;;;23.60;56.50;;;;;;5093589;28;20024;-72
2021/06/24 01:18:06;;;;;;;3.90;1.10;;;23.60;56.40;;;;;;5093535;28;20056;-72
2021/06/24 01:20:36;;;;;;;4.53;1.00;;;23.60;56.50;;;;;;5093832;28;20551;-72
2021/06/24 01:23:05;;;;;;;2.30;0.85;;;23.50;56.60;;;;;;5092031;28;20020;-72
2021/06/24 01:25:31;;;;;;;4.85;1.40;;;23.50;56.60;;;;;;5093405;28;20036;-72
2021/06/24 01:28:06;;;;;;;2.92;1.10;;;23.60;56.70;;;;;;5093374;28;20015;-72
2021/06/24 01:30:32;;;;;;;2.15;0.93;;;23.60;56.80;;;;;;5093189;28;20016;-72
2021/06/24 01:32:58;;;;;;;2.00;0.93;;;23.60;56.80;;;;;;5092389;28;20415;-72
2021/06/24 01:35:28;;;;;;;1.45;0.90;;;23.60;56.80;;;;;;5078057;28;20039;-72
2021/06/24 01:37:59;;;;;;;5.32;1.00;;;23.70;56.90;;;;;;5091889;28;20077;-72
2021/06/24 01:40:26;;;;;;;3.97;1.27;;;23.70;56.80;;;;;;5091853;28;20077;-72
2021/06/24 01:42:53;;;;;;;1.55;0.93;;;23.70;56.80;;;;;;5093210;28;20020;-72
2021/06/24 01:45:19;;;;;;;1.58;0.82;;;23.70;56.80;;;;;;5092956;28;20030;-71
2021/06/24 01:47:45;;;;;;;2.70;1.02;;;23.70;56.90;;;;;;5091736;28;20016;-72
2021/06/24 01:50:11;;;;;;;2.72;1.15;;;23.70;56.80;;;;;;5093307;28;20397;-72
2021/06/24 01:52:40;;;;;;;3.13;0.85;;;23.70;56.80;;;;;;5073430;28;20024;-72
2021/06/24 01:55:06;;;;;;;1.80;1.05;;;23.70;56.80;;;;;;5072295;28;20040;-72
2021/06/24 01:57:32;;;;;;;5.18;1.02;;;23.60;56.90;;;;;;5088310;28;20028;-72
2021/06/24 01:59:58;;;;;;;5.82;1.40;;;23.60;57.00;;;;;;5092422;28;20046;-72
2021/06/24 02:02:24;;;;;;;5.45;1.40;;;23.60;57.20;;;;;;5080206;28;20024;-72
2021/06/24 02:04:50;;;;;;;4.15;1.20;;;23.60;57.30;;;;;;5072390;28;20081;-72
2021/06/24 02:07:16;;;;;;;2.13;0.95;;;23.60;57.40;;;;;;5072822;28;20039;-72
2021/06/24 02:09:42;;;;;;;8.35;1.02;;;23.50;57.50;;;;;;5072999;28;20028;-72
2021/06/24 02:12:08;;;;;;;1.85;1.10;;;23.50;57.50;;;;;;5073308;28;20096;-72
2021/06/24 02:14:34;;;;;;;1.35;1.15;;;23.50;57.60;;;;;;5073318;28;20475;-72
2021/06/24 02:17:00;;;;;;;8.57;1.52;;;23.50;57.90;;;;;;5073272;28;20039;-72
2021/06/24 02:19:25;;;;;;;2.97;1.10;;;23.40;58.10;;;;;;5071938;28;20035;-72
2021/06/24 02:21:51;;;;;;;1.83;0.90;;;23.50;58.10;;;;;;5072275;28;20035;-72
2021/06/24 02:24:17;;;;;;;1.77;1.15;;;23.50;57.90;;;;;;5073100;28;20025;-72
2021/06/24 02:26:43;;;;;;;6.70;1.98;;;23.50;59.00;;;;;;5073117;28;20021;-72
2021/06/24 02:29:09;;;;;;;3.25;1.80;;;23.50;58.90;;;;;;5073158;28;20494;-72
2021/06/24 02:31:35;;;;;;;2.67;1.75;;;23.60;58.80;;;;;;5073100;28;20021;-72
2021/06/24 02:34:01;;;;;;;2.72;1.92;;;23.60;58.70;;;;;;5073321;28;20037;-72
2021/06/24 02:36:27;;;;;;;3.55;1.92;;;23.60;58.80;;;;;;5073373;28;20029;-72
2021/06/24 02:38:52;;;;;;;5.05;2.33;;;23.60;58.60;;;;;;5073052;28;20078;-72
2021/06/24 02:41:18;;;;;;;2.47;1.40;;;23.60;58.60;;;;;;5072955;28;20374;-72
2021/06/24 02:43:44;;;;;;;5.28;1.75;;;23.70;58.40;;;;;;5072932;28;20541;-72
2021/06/24 02:46:10;;;;;;;1.35;1.17;;;23.70;58.30;;;;;;5071629;28;20069;-72
2021/06/24 02:48:36;;;;;;;6.70;1.30;;;23.70;58.00;;;;;;5072994;28;20099;-72
2021/06/24 02:51:02;;;;;;;1.52;0.95;;;23.70;57.90;;;;;;5073642;28;20131;-72
2021/06/24 02:53:28;;;;;;;2.75;1.45;;;23.70;58.00;;;;;;5072850;28;20021;-72
2021/06/24 02:55:54;;;;;;;1.42;1.20;;;23.60;58.00;;;;;;5086017;28;20509;-72
2021/06/24 02:58:19;;;;;;;4.80;1.55;;;23.60;57.90;;;;;;5092832;28;20035;-72
2021/06/24 03:00:45;;;;;;;4.55;1.42;;;23.50;58.30;;;;;;5092898;28;20032;-72
2021/06/24 03:03:11;;;;;;;3.60;1.20;;;23.50;58.30;;;;;;5091239;28;20302;-72
2021/06/24 03:05:37;;;;;;;4.43;1.10;;;23.40;58.40;;;;;;5085201;28;20063;-72
2021/06/24 03:08:03;;;;;;;7.10;1.42;;;23.30;58.60;;;;;;5091650;28;20024;-71
2021/06/24 03:10:29;;;;;;;2.20;1.45;;;23.30;58.80;;;;;;5096679;28;20059;-72
2021/06/24 03:12:54;;;;;;;6.55;1.20;;;23.20;58.90;;;;;;5096850;28;20119;-72
2021/06/24 03:15:21;;;;;;;5.88;1.40;;;23.20;58.90;;;;;;5095658;28;20043;-72
2021/06/24 03:17:47;;;;;;;5.00;1.77;;;23.20;59.00;;;;;;5096868;28;20031;-72
2021/06/24 03:20:13;;;;;;;3.55;1.70;;;23.10;59.10;;;;;;5082820;28;20035;-72
2021/06/24 03:22:40;;;;;;;2.10;0.95;;;23.10;59.30;;;;;;5076488;28;20482;-71
2021/06/24 03:25:07;;;;;;;6.50;1.70;;;23.10;59.10;;;;;;5076317;28;20634;-72
2021/06/24 03:27:33;;;;;;;3.28;1.20;;;23.00;59.20;;;;;;5076238;28;20020;-72
2021/06/24 03:30:00;;;;;;;2.58;1.38;;;23.00;59.40;;;;;;5074915;28;20036;-72
2021/06/24 03:32:25;;;;;;;5.07;1.60;;;23.00;59.40;;;;;;5076544;28;20681;-72
2021/06/24 03:34:51;;;;;;;4.40;1.58;;;23.00;59.40;;;;;;5075190;28;20033;-72
2021/06/24 03:37:17;;;;;;;1.75;1.10;;;23.10;59.50;;;;;;5076184;28;20035;-72
2021/06/24 03:39:45;;;;;;;4.38;1.48;;;23.00;59.50;;;;;;5076074;28;20025;-73
2021/06/24 03:42:11;;;;;;;2.63;1.10;;;23.00;59.40;;;;;;5076387;28;20024;-72
2021/06/24 03:44:37;;;;;;;2.45;1.17;;;23.10;59.60;;;;;;5076008;28;20034;-73
2021/06/24 03:47:03;;;;;;;3.97;1.15;;;23.10;59.50;;;;;;5076161;28;20150;-73
2021/06/24 03:49:29;;;;;;;6.50;1.30;;;23.10;59.60;;;;;;5075544;28;20091;-72
2021/06/24 03:51:55;;;;;;;6.72;1.88;;;23.10;59.70;;;;;;5075748;28;20055;-72
2021/06/24 03:54:21;;;;;;;2.60;1.70;;;23.10;59.40;;;;;;5087759;28;20027;-72
2021/06/24 03:56:46;;;;;;;11.13;1.27;;;23.20;59.40;;;;;;5096355;28;20376;-72
2021/06/24 03:59:12;;;;;;;5.80;1.38;;;23.20;59.30;;;;;;5095784;28;20051;-74
2021/06/24 04:01:42;;;;;;;2.95;1.30;;;23.20;59.20;;;;;;5091413;28;20036;-73
2021/06/24 04:04:10;;;;;;;8.52;1.60;;;23.20;59.10;;;;;;5074576;28;20036;-73
2021/06/24 04:06:36;;;;;;;2.35;1.23;;;23.30;59.20;;;;;;5075435;28;20077;-71
2021/06/24 04:09:03;;;;;;;2.53;1.30;;;23.30;59.10;;;;;;5074362;28;20386;-71
2021/06/24 04:11:29;;;;;;;4.50;1.50;;;23.30;59.30;;;;;;5075112;28;20096;-72
2021/06/24 04:13:54;;;;;;;4.72;1.40;;;23.40;59.40;;;;;;5075692;28;20092;-71
2021/06/24 04:16:20;;;;;;;3.08;1.60;;;23.50;59.50;;;;;;5075770;28;20021;-74
2021/06/24 04:18:46;;;;;;;3.10;1.73;;;23.50;59.50;;;;;;5075332;28;20109;-72
2021/06/24 04:21:11;;;;;;;9.38;3.10;;;23.60;59.40;;;;;;5073697;28;20021;-72
2021/06/24 04:23:37;;;;;;;8.05;2.80;;;23.70;59.20;;;;;;5075303;28;20543;-71
2021/06/24 04:26:03;;;;;;;4.70;2.20;;;23.80;59.00;;;;;;5075249;28;20024;-71
2021/06/24 04:28:29;;;;;;;6.57;1.88;;;23.90;58.90;;;;;;5075219;28;20028;-73
2021/06/24 04:30:55;;;;;;;5.72;1.77;;;24.00;58.90;;;;;;5075407;28;20032;-71
2021/06/24 04:33:21;;;;;;;8.98;1.88;;;24.10;58.70;;;;;;5074051;28;20020;-72
2021/06/24 04:35:47;;;;;;;6.78;2.03;;;24.20;58.50;;;;;;5093387;28;20055;-71
2021/06/24 04:38:14;;;;;;;3.58;1.98;;;24.30;58.40;;;;;;5095293;28;20020;-71
2021/06/24 04:40:40;;;;;;;3.58;1.75;;;24.30;58.20;;;;;;5093873;28;20028;-71
2021/06/24 04:43:06;;;;;;;10.52;2.25;;;24.40;57.90;;;;;;5081818;28;20497;-71
2021/06/24 04:45:32;;;;;;;3.17;1.88;;;24.50;57.90;;;;;;5074736;28;20078;-71
2021/06/24 04:47:58;;;;;;;7.20;1.70;;;24.60;57.90;;;;;;5074917;28;20017;-71
2021/06/24 04:50:24;;;;;;;2.83;1.90;;;24.70;57.80;;;;;;5074530;28;20048;-71
2021/06/24 04:52:51;;;;;;;8.20;2.92;;;24.80;57.50;;;;;;5085761;28;20478;-71
2021/06/24 04:55:17;;;;;;;4.43;2.08;;;24.90;57.10;;;;;;5094787;28;20055;-71
2021/06/24 04:57:43;;;;;;;3.85;2.40;;;25.00;56.80;;;;;;5093115;28;20062;-71
2021/06/24 05:00:09;;;;;;;4.63;2.53;;;25.00;56.60;;;;;;5094723;28;20028;-71
2021/06/24 05:02:35;;;;;;;3.10;1.95;;;25.00;56.40;;;;;;5094757;28;20144;-71
2021/06/24 05:05:05;;;;;;;3.13;2.72;;;25.10;56.40;;;;;;5078589;28;20061;-71
2021/06/24 05:07:31;;;;;;;5.85;2.95;;;25.00;56.30;;;;;;5073234;28;20378;-71
2021/06/24 05:09:57;;;;;;;3.15;2.40;;;25.10;56.40;;;;;;5073080;28;20081;-71
2021/06/24 05:12:23;;;;;;;5.78;2.90;;;25.10;56.50;;;;;;5089729;28;20101;-72
2021/06/24 05:14:48;;;;;;;4.97;2.63;;;25.10;56.30;;;;;;5093540;28;20097;-71
2021/06/24 05:17:15;;;;;;;8.73;2.80;;;25.10;56.30;;;;;;5094520;28;20124;-72
2021/06/24 05:19:42;;;;;;;4.50;2.67;;;25.10;56.30;;;;;;5073702;28;20428;-71
2021/06/24 05:22:11;;;;;;;3.33;2.45;;;25.10;56.40;;;;;;5072655;28;20020;-71
2021/06/24 05:24:39;;;;;;;4.00;2.88;;;25.10;56.60;;;;;;5072752;28;20046;-71
2021/06/24 05:27:11;;;;;;;7.78;2.70;;;25.20;56.70;;;;;;5073900;28;20017;-80
2021/06/24 05:29:37;;;;;;;3.00;2.20;;;25.30;56.50;;;;;;5073927;28;20035;-75
2021/06/24 05:32:03;;;;;;;4.05;3.05;;;25.50;56.70;;;;;;5073211;28;20021;-76
2021/06/24 05:34:31;;;;;;;6.55;2.60;;;25.60;56.90;;;;;;5079922;28;20029;-75
2021/06/24 05:36:57;;;;;;;6.07;2.50;;;25.80;56.10;;;;;;5073515;28;20028;-73
2021/06/24 05:39:23;;;;;;;7.82;2.20;;;25.90;55.70;;;;;;5072068;28;20064;-73
2021/06/24 05:41:49;;;;;;;4.50;2.50;;;26.00;55.50;;;;;;5073608;28;20099;-73
2021/06/24 05:44:14;;;;;;;4.45;2.97;;;26.10;55.10;;;;;;5073426;28;20081;-73
2021/06/24 05:46:40;;;;;;;4.13;2.95;;;26.20;54.80;;;;;;5072843;28;20025;-73
2021/06/24 05:49:06;;;;;;;3.40;2.78;;;26.30;54.50;;;;;;5071647;28;20518;-72
2021/06/24 05:51:32;;;;;;;6.72;3.28;;;26.40;54.40;;;;;;5086571;28;20386;-73
2021/06/24 05:53:57;;;;;;;3.75;3.05;;;26.50;54.50;;;;;;5093440;28;20027;-80
2021/06/24 05:56:24;;;;;;;6.47;2.80;;;26.60;53.50;;;;;;5091854;28;20028;-79
2021/06/24 05:58:50;;;;;;;2.97;2.65;;;26.60;53.40;;;;;;5093640;28;20019;-75
2021/06/24 06:01:46;;;;;;;6.55;2.78;;;26.60;53.00;;;;;;5092274;28;20363;-80
2021/06/24 06:04:13;;;;;;;2.92;2.50;;;26.70;52.80;;;;;;5077847;28;20024;-78
2021/06/24 06:06:39;;;;;;;6.22;2.80;;;26.70;52.70;;;;;;5073248;28;20026;-77
2021/06/24 06:09:06;;;;;;;8.23;2.70;;;26.70;52.60;;;;;;5075937;28;20069;-77
2021/06/24 06:11:32;;;;;;;6.22;2.50;;;26.80;52.30;;;;;;5092003;28;20070;-73
2021/06/24 06:13:57;;;;;;;4.25;2.95;;;26.80;52.00;;;;;;5093124;28;20099;-75
2021/06/24 06:16:23;;;;;;;6.55;3.88;;;26.90;51.50;;;;;;5091801;28;20112;-77
2021/06/24 06:18:49;;;;;;;7.65;3.00;;;26.90;51.10;;;;;;5093151;28;20012;-79
2021/06/24 06:21:15;;;;;;;3.35;2.83;;;26.90;51.40;;;;;;5093042;28;20042;-72
2021/06/24 06:23:41;;;;;;;3.38;2.22;;;26.90;51.20;;;;;;5093081;28;20041;-72
2021/06/24 06:26:07;;;;;;;2.30;2.10;;;26.90;51.30;;;;;;5089683;28;20040;-72
2021/06/24 06:28:36;;;;;;;2.55;2.30;;;27.00;51.50;;;;;;5093274;28;20077;-71
2021/06/24 06:31:01;;;;;;;5.47;2.78;;;27.00;51.10;;;;;;5091585;28;20020;-71
2021/06/24 06:33:27;;;;;;;6.55;2.95;;;27.10;50.50;;;;;;5089155;28;20024;-72
2021/06/24 06:35:54;;;;;;;4.80;2.28;;;27.10;50.70;;;;;;5091690;28;20024;-72
2021/06/24 06:38:22;;;;;;;2.60;2.22;;;27.30;50.40;;;;;;5092916;28;20427;-72
2021/06/24 06:40:48;;;;;;;3.42;2.35;;;27.30;50.30;;;;;;5093057;28;20028;-72
2021/06/24 06:43:15;;;;;;;4.10;2.45;;;27.40;49.90;;;;;;5076401;28;20039;-80
2021/06/24 06:45:48;;;;;;;4.68;2.17;;;27.50;49.70;;;;;;5071622;28;20053;-80
2021/06/24 06:48:14;;;;;;;3.33;2.20;;;27.50;49.30;;;;;;5084169;28;20424;-79
2021/06/24 06:50:44;;;;;;;5.25;2.72;;;27.70;49.40;;;;;;5087348;28;20098;-77
2021/06/24 06:53:10;;;;;;;2.33;2.10;;;27.70;48.70;;;;;;5092696;28;20012;-74
2021/06/24 06:56:47;;;;;;;2.50;2.30;;;27.80;49.00;;;;;;5092854;28;20035;-80
2021/06/24 06:58:54;;;;;;;4.10;2.65;;;27.90;48.00;;;;;;5082231;28;20032;-77
2021/06/24 07:01:20;;;;;;;4.35;2.38;;;27.90;46.90;;;;;;5083776;28;20028;-77
2021/06/24 07:03:46;;;;;;;3.30;2.13;;;28.00;47.50;;;;;;5082200;28;20039;-80
2021/06/24 07:06:14;;;;;;;3.42;2.25;;;28.00;47.50;;;;;;5075284;28;20035;-78
2021/06/24 07:08:40;;;;;;;4.78;2.28;;;28.10;47.40;;;;;;5075413;28;20130;-77
2021/06/24 07:11:08;;;;;;;2.40;2.08;;;28.10;46.50;;;;;;5086816;28;21883;-75
2021/06/24 07:13:34;;;;;;;4.47;2.10;;;28.20;46.50;;;;;;5081717;28;20024;-77
2021/06/24 07:16:00;;;;;;;3.65;2.30;;;28.20;46.00;;;;;;5092554;28;20393;-75
2021/06/24 07:18:26;;;;;;;3.63;2.30;;;28.20;46.20;;;;;;5077356;28;20037;-75
2021/06/24 07:20:55;;;;;;;4.68;2.33;;;28.20;46.00;;;;;;5087198;28;20081;-78
2021/06/24 07:23:21;;;;;;;2.90;2.47;;;28.20;46.20;;;;;;5091520;28;20024;-75
2021/06/24 07:25:46;;;;;;;3.75;2.17;;;28.20;46.00;;;;;;5082977;28;20028;-77
2021/06/24 07:28:14;;;;;;;2.72;2.30;;;28.20;46.10;;;;;;5092007;28;20020;-80
2021/06/24 07:30:41;;;;;;;3.55;2.40;;;28.10;46.10;;;;;;5085921;28;20063;-75
2021/06/24 07:33:07;;;;;;;3.17;2.10;;;28.00;46.20;;;;;;5083507;28;20051;-74
2021/06/24 07:35:33;;;;;;;3.33;2.47;;;28.00;46.10;;;;;;5089580;28;20055;-77
2021/06/24 07:37:59;;;;;;;5.35;2.28;;;28.00;45.60;;;;;;5092598;28;20074;-75
2021/06/24 07:40:25;;;;;;;8.45;2.78;;;27.90;45.60;;;;;;5092227;28;20493;-77
2021/06/24 07:42:54;;;;;;;3.55;2.00;;;27.80;45.50;;;;;;5092515;28;20477;-81
2021/06/24 07:45:20;;;;;;;2.42;2.10;;;27.70;45.60;;;;;;5090677;28;20093;-75
2021/06/24 07:47:45;;;;;;;4.60;2.55;;;27.70;45.60;;;;;;5089903;28;20432;-74
2021/06/24 07:50:11;;;;;;;1.92;1.70;;;27.60;45.70;;;;;;5091985;28;20426;-74
2021/06/24 07:52:37;;;;;;;2.10;1.90;;;27.60;46.30;;;;;;5092007;28;20493;-76
2021/06/24 07:55:07;;;;;;;2.10;1.85;;;27.50;47.00;;;;;;5093119;28;20070;-75
2021/06/24 07:57:32;;;;;;;3.00;2.30;;;27.40;46.50;;;;;;5083755;28;20390;-75
2021/06/24 07:59:58;;;;;;;2.88;2.20;;;27.40;46.70;;;;;;5089685;28;20035;-73
2021/06/24 08:02:24;;;;;;;2.53;2.17;;;27.30;47.10;;;;;;5095991;28;20020;-73
2021/06/24 08:04:50;;;;;;;6.13;2.30;;;27.20;47.20;;;;;;5077914;28;20033;-73
2021/06/24 08:07:16;;;;;;;3.75;2.20;;;27.20;47.70;;;;;;5075402;28;20070;-73
2021/06/24 08:09:42;;;;;;;32.03;5.05;;;27.10;47.80;;;;;;5074871;28;20105;-73
2021/06/24 08:12:09;;;;;;;8.85;2.60;;;27.10;48.10;;;;;;5074869;28;20016;-73
2021/06/24 08:14:34;;;;;;;5.95;2.22;;;27.10;48.50;;;;;;5075420;28;20060;-73
2021/06/24 08:17:00;;;;;;;5.45;2.72;;;27.20;48.60;;;;;;5082814;28;20104;-73
2021/06/24 08:19:26;;;;;;;4.97;2.08;;;27.20;48.50;;;;;;5095561;28;20464;-73
2021/06/24 08:21:58;;;;;;;5.13;2.03;;;27.20;48.70;;;;;;5094211;28;20093;-73
2021/06/24 08:24:23;;;;;;;2.90;2.00;;;27.30;48.50;;;;;;5085465;28;20035;-75
2021/06/24 08:27:02;;;;;;;2.22;2.00;;;27.30;48.10;;;;;;5075345;28;20441;-79
2021/06/24 08:29:28;;;;;;;5.40;1.90;;;27.30;47.90;;;;;;5075419;28;20032;-75
2021/06/24 08:31:54;;;;;;;4.05;2.40;;;27.30;48.10;;;;;;5081459;28;20020;-75
2021/06/24 08:34:20;;;;;;;3.90;2.40;;;27.30;48.00;;;;;;5091081;28;20038;-77
2021/06/24 08:36:46;;;;;;;2.03;1.88;;;27.40;48.10;;;;;;5094049;28;20028;-77
2021/06/24 08:39:12;;;;;;;2.88;1.83;;;27.30;48.00;;;;;;5095358;28;20024;-77
2021/06/24 08:41:38;;;;;;;1.95;1.73;;;27.30;47.90;;;;;;5095312;28;20050;-77
2021/06/24 08:44:45;;;;;;;2.63;1.70;;;27.30;48.00;;;;;;5095131;28;20541;-80
2021/06/24 08:47:59;;;;;;;2.60;1.90;;;27.30;47.90;;;;;;5095029;28;20107;-79
2021/06/24 08:50:21;;;;;;;3.05;2.30;;;27.30;47.60;;;;;;5090273;28;20124;-75
2021/06/24 08:52:49;;;;;;;4.07;2.20;;;27.30;48.10;;;;;;5093350;28;20032;-74
2021/06/24 08:55:17;;;;;;;3.17;2.30;;;27.40;48.30;;;;;;5094819;28;20020;-75
2021/06/24 08:57:43;;;;;;;2.28;1.67;;;27.40;48.00;;;;;;5094935;28;20054;-76
2021/06/24 09:00:09;;;;;;;8.55;2.70;;;27.40;47.70;;;;;;5094839;28;20438;-78
2021/06/24 09:02:43;;;;;;;5.20;2.40;;;27.40;47.80;;;;;;5094877;28;20111;-79
2021/06/24 09:05:11;;;;;;;6.90;2.55;;;27.40;47.90;;;;;;5078028;28;20505;-75
2021/06/24 09:08:12;;;;;;;2.25;1.95;;;27.40;47.80;;;;;;5073408;28;20082;-80
2021/06/24 09:10:41;;;;;;;1.52;1.42;;;27.40;47.90;;;;;;5012611;28;20022;-80
2021/06/24 09:13:23;;;;;;;2.88;1.70;;;27.50;47.80;;;;;;5012873;28;20104;-80
2021/06/24 09:15:49;;;;;;;1.70;1.60;;;27.50;47.50;;;;;;5012594;28;20025;-77
2021/06/24 09:18:22;;;;;;;10.63;2.95;;;27.50;46.80;;;;;;5012470;28;20404;-79
2021/06/24 09:20:48;;;;;;;2.95;2.00;;;27.60;47.40;;;;;;5019389;28;20032;-79
2021/06/24 09:23:24;;;;;;;3.33;2.05;;;27.70;47.50;;;;;;5014071;28;20033;-74
2021/06/24 09:26:15;;;;;;;2.22;2.03;;;27.70;47.20;;;;;;5032016;28;20121;-77
2021/06/24 09:28:43;;;;;;;1.80;1.70;;;27.80;47.60;;;;;;5032097;28;20028;-76
2021/06/24 09:31:28;;;;;;;1.80;1.50;;;27.90;47.30;;;;;;5031825;28;20136;-75
2021/06/24 09:33:56;;;;;;;3.85;2.13;;;27.90;47.30;;;;;;5017839;28;20073;-74
2021/06/24 09:36:34;;;;;;;3.05;1.92;;;28.00;47.10;;;;;;5013609;28;20391;-74
2021/06/24 09:39:00;;;;;;;2.10;1.90;;;28.00;47.00;;;;;;5027770;28;20041;-74
2021/06/24 09:41:26;;;;;;;2.42;1.50;;;28.10;47.20;;;;;;5031141;28;20032;-74
2021/06/24 09:43:54;;;;;;;2.78;2.00;;;28.10;47.00;;;;;;5040040;28;20037;-74
2021/06/24 09:46:25;;;;;;;1.67;1.58;;;28.20;46.60;;;;;;5087284;28;20024;-76
2021/06/24 09:48:58;;;;;;;3.30;2.33;;;28.30;46.70;;;;;;5104671;28;20059;-76
2021/06/24 09:51:32;;;;;;;3.60;2.38;;;28.30;46.10;;;;;;5082095;28;20535;-78
2021/06/24 09:54:13;;;;;;;3.13;1.60;;;28.40;46.10;;;;;;5080657;28;20024;-74
2021/06/24 09:56:48;;;;;;;2.05;1.83;;;28.40;46.10;;;;;;5076928;28;20040;-75
2021/06/24 09:59:46;;;;;;;2.95;1.92;;;28.50;46.00;;;;;;5083099;28;20020;-77
2021/06/24 10:02:14;;;;;;;2.15;1.58;;;28.60;46.00;;;;;;5076444;28;20035;-76
2021/06/24 10:04:44;;;;;;;4.47;2.22;;;28.60;45.60;;;;;;5090123;28;20069;-75
2021/06/24 10:07:12;;;;;;;1.73;1.60;;;28.60;45.00;;;;;;5088954;28;20023;-78
2021/06/24 10:09:41;;;;;;;3.30;1.40;;;28.70;45.30;;;;;;5093655;28;20016;-79
2021/06/24 10:12:12;;;;;;;2.47;1.90;;;28.70;45.20;;;;;;5090351;28;20528;-72
2021/06/24 10:14:39;;;;;;;2.85;2.13;;;28.80;44.60;;;;;;5081784;28;20442;-72
2021/06/24 10:17:06;;;;;;;3.88;1.60;;;28.80;44.70;;;;;;5074669;28;20024;-72
2021/06/24 10:19:36;;;;;;;1.67;1.50;;;28.90;44.50;;;;;;5087694;28;20063;-73
2021/06/24 10:22:15;;;;;;;2.55;2.03;;;28.90;44.60;;;;;;5091404;28;20024;-73
2021/06/24 10:24:55;;;;;;;4.68;1.92;;;28.90;44.50;;;;;;5075396;28;20052;-72
2021/06/24 10:27:28;;;;;;;2.13;1.80;;;28.90;44.80;;;;;;5073047;28;20016;-72
2021/06/24 10:29:54;;;;;;;3.22;2.40;;;29.00;44.20;;;;;;5074749;28;20025;-72
2021/06/24 10:32:32;;;;;;;2.20;2.00;;;29.00;43.70;;;;;;5074089;28;20521;-72
2021/06/24 10:35:01;;;;;;;4.68;2.08;;;29.00;43.70;;;;;;5077932;28;20032;-73
2021/06/24 10:37:28;;;;;;;4.75;2.45;;;29.00;43.60;;;;;;5072874;28;20077;-72
2021/06/24 10:39:57;;;;;;;2.58;2.20;;;29.10;43.80;;;;;;5072767;28;20021;-72
2021/06/24 10:42:24;;;;;;;3.15;2.42;;;29.10;43.80;;;;;;5076544;28;20020;-72
2021/06/24 10:44:57;;;;;;;2.50;2.08;;;29.10;43.90;;;;;;5085167;28;20060;-72
2021/06/24 10:47:42;;;;;;;4.30;3.20;;;29.20;43.70;;;;;;5089889;28;20428;-73
2021/06/24 10:50:39;;;;;;;7.13;4.20;;;29.30;43.60;;;;;;5077834;28;20171;-72
2021/06/24 10:53:06;;;;;;;2.33;2.13;;;29.30;43.90;;;;;;5058436;28;20055;-72
2021/06/24 10:55:34;;;;;;;5.10;2.30;;;29.40;43.70;;;;;;5082419;28;20024;-72
2021/06/24 10:58:02;;;;;;;3.42;2.30;;;29.40;43.30;;;;;;5085792;28;20028;-72
2021/06/24 11:00:44;;;;;;;2.15;1.65;;;29.50;43.70;;;;;;5082269;28;20110;-79
2021/06/24 11:03:32;;;;;;;4.03;2.83;;;29.60;43.90;;;;;;5083199;28;20036;-75
2021/06/24 11:06:09;;;;;;;5.45;3.05;;;29.60;43.30;;;;;;5072694;28;20116;-78
2021/06/24 11:08:35;;;;;;;3.65;2.72;;;29.70;43.20;;;;;;5090048;28;20095;-73
2021/06/24 11:11:12;;;;;;;8.25;2.75;;;29.70;43.10;;;;;;5071517;28;20119;-77
2021/06/24 11:13:41;;;;;;;2.40;2.08;;;29.70;43.00;;;;;;5081497;28;20025;-74
2021/06/24 11:16:15;;;;;;;2.50;2.30;;;29.70;42.90;;;;;;5078364;28;20028;-78
2021/06/24 11:18:44;;;;;;;2.47;2.28;;;29.80;43.00;;;;;;5071687;28;20127;-79
2021/06/24 11:21:11;;;;;;;2.20;2.00;;;29.90;43.10;;;;;;5071597;28;20078;-74
2021/06/24 11:23:59;;;;;;;2.33;1.90;;;29.90;43.20;;;;;;5071554;28;20099;-76
2021/06/24 11:26:24;;;;;;;3.25;2.38;;;30.00;43.10;;;;;;5070161;28;20036;-73
2021/06/24 11:31:22;;;;;;;2.75;2.13;;;30.10;43.20;;;;;;5089023;28;20020;-76
2021/06/24 11:34:17;;;;;;;4.68;2.35;;;30.10;43.00;;;;;;5086037;28;20024;-75
2021/06/24 11:36:51;;;;;;;3.83;2.60;;;30.20;43.20;;;;;;5078979;28;20065;-78
2021/06/24 11:39:29;;;;;;;3.38;2.53;;;30.20;43.20;;;;;;5079782;28;20541;-77
2021/06/24 11:42:00;;;;;;;11.60;3.00;;;30.30;44.00;;;;;;5075961;28;20061;-76
2021/06/24 11:44:38;;;;;;;7.78;2.78;;;30.40;43.30;;;;;;5086569;28;20059;-76
2021/06/24 11:47:16;;;;;;;8.98;2.88;;;30.40;43.10;;;;;;5075877;28;20043;-77
2021/06/24 12:00:27;;;;;;;3.58;2.45;;;30.40;42.70;;;;;;5082941;28;20452;-76
2021/06/24 12:05:04;;;;;;;3.25;2.95;;;30.70;42.30;;;;;;4989196;28;20353;-76
2021/06/24 12:07:34;;;;;;;2.88;2.60;;;30.70;42.30;;;;;;4991276;28;20162;-74
2021/06/24 12:10:00;;;;;;;3.30;2.00;;;30.70;42.60;;;;;;4987979;28;20047;-76
2021/06/24 12:12:27;;;;;;;7.55;2.55;;;30.70;42.80;;;;;;4992869;28;20522;-75
2021/06/24 12:14:56;;;;;;;2.88;2.33;;;30.80;42.90;;;;;;4993904;28;20067;-71
2021/06/24 12:17:35;;;;;;;6.40;2.40;;;30.80;42.60;;;;;;4992735;28;20084;-68
2021/06/24 12:20:07;;;;;;;6.45;2.80;;;30.90;42.20;;;;;;4983838;28;20038;-68
2021/06/24 12:22:37;;;;;;;2.42;2.15;;;30.90;42.20;;;;;;4991057;28;20093;-67
2021/06/24 12:25:05;;;;;;;3.35;2.28;;;31.00;41.80;;;;;;4978026;28;20524;-68
2021/06/24 12:27:36;;;;;;;6.78;2.60;;;31.10;42.00;;;;;;4993638;28;20022;-66
2021/06/24 12:30:12;;;;;;;10.75;2.35;;;31.10;42.10;;;;;;4976735;28;20026;-66
2021/06/24 12:32:45;;;;;;;3.53;2.38;;;31.10;42.10;;;;;;4993500;28;20563;-68
2021/06/24 12:35:11;;;;;;;3.35;2.50;;;31.20;42.00;;;;;;5034182;28;20048;-70
2021/06/24 12:37:43;;;;;;;3.03;2.72;;;31.30;41.60;;;;;;5075490;28;20375;-70
2021/06/24 12:40:14;;;;;;;2.88;2.53;;;31.30;41.40;;;;;;5092855;28;20114;-69
2021/06/24 12:42:48;;;;;;;5.25;2.30;;;31.30;41.50;;;;;;5094359;28;20036;-67
2021/06/24 12:45:16;;;;;;;4.20;2.63;;;31.40;41.70;;;;;;5092992;28;20039;-66
2021/06/24 12:47:45;;;;;;;5.90;2.58;;;31.50;41.70;;;;;;5092701;28;20095;-68
2021/06/24 12:50:11;;;;;;;2.78;2.22;;;31.50;41.30;;;;;;5092410;28;20177;-68
2021/06/24 12:52:44;;;;;;;2.15;1.98;;;31.60;41.10;;;;;;5093688;28;20481;-66
2021/06/24 12:55:36;;;;;;;8.50;2.63;;;31.60;41.10;;;;;;5092583;28;20024;-71
2021/06/24 12:58:32;;;;;;;8.23;3.25;;;31.70;41.20;;;;;;5093692;28;20024;-70
2021/06/24 13:01:13;;;;;;;6.07;3.30;;;31.80;41.30;;;;;;4994969;28;20124;-67
2021/06/24 13:03:51;;;;;;;5.30;2.92;;;31.90;40.90;;;;;;5010655;28;20049;-66
2021/06/24 13:06:28;;;;;;;3.63;2.30;;;32.00;41.10;;;;;;5019277;28;20380;-66
2021/06/24 13:09:00;;;;;;;7.28;2.30;;;32.10;40.60;;;;;;5015778;28;20056;-69